sensor_id;sensor_type;location;lat;lon;timestamp;P1;durP1;ratioP1;P2;durP2;ratioP2
75887;SDS011;64562;55.662;37.300;2024-01-15T00:01:05;10.80;;;6.00;;
75887;SDS011;64562;55.662;37.300;2024-01-15T00:03:31;11.68;;;6.10;;
75887;SDS011;64562;55.662;37.300;2024-01-15T00:06:00;12.35;;;5.78;;
75887;SDS011;64562;55.662;37.300;2024-01-15T00:08:27;10.05;;;5.45;;
75887;SDS011;64562;55.662;37.300;2024-01-15T00:10:53;9.40;;;4.90;;
75887;SDS011;64562;55.662;37.300;2024-01-15T00:13:20;9.07;;;5.18;;
75887;SDS011;64562;55.662;37.300;2024-01-15T00:15:47;9.48;;;4.90;;
75887;SDS011;64562;55.662;37.300;2024-01-15T00:18:13;11.27;;;5.20;;
75887;SDS011;64562;55.662;37.300;2024-01-15T00:20:40;8.40;;;4.97;;
75887;SDS011;64562;55.662;37.300;2024-01-15T00:23:08;9.90;;;4.97;;
75887;SDS011;64562;55.662;37.300;2024-01-15T00:25:35;8.27;;;4.70;;
75887;SDS011;64562;55.662;37.300;2024-01-15T00:28:02;8.48;;;4.63;;
75887;SDS011;64562;55.662;37.300;2024-01-15T00:30:29;9.05;;;4.82;;
75887;SDS011;64562;55.662;37.300;2024-01-15T00:32:56;7.45;;;4.40;;
75887;SDS011;64562;55.662;37.300;2024-01-15T00:35:22;7.95;;;4.57;;
75887;SDS011;64562;55.662;37.300;2024-01-15T00:37:49;8.35;;;4.68;;
75887;SDS011;64562;55.662;37.300;2024-01-15T00:40:17;7.90;;;4.57;;
75887;SDS011;64562;55.662;37.300;2024-01-15T00:42:44;9.18;;;4.63;;
75887;SDS011;64562;55.662;37.300;2024-01-15T00:45:11;9.70;;;5.10;;
75887;SDS011;64562;55.662;37.300;2024-01-15T00:47:37;8.23;;;4.38;;
75887;SDS011;64562;55.662;37.300;2024-01-15T00:50:04;9.25;;;4.32;;
75887;SDS011;64562;55.662;37.300;2024-01-15T00:52:31;8.23;;;4.70;;
75887;SDS011;64562;55.662;37.300;2024-01-15T00:54:58;5.90;;;3.72;;
75887;SDS011;64562;55.662;37.300;2024-01-15T00:57:26;6.72;;;3.80;;
75887;SDS011;64562;55.662;37.300;2024-01-15T00:59:53;7.40;;;3.80;;
75887;SDS011;64562;55.662;37.300;2024-01-15T01:02:20;7.43;;;4.32;;
75887;SDS011;64562;55.662;37.300;2024-01-15T01:04:47;6.00;;;3.80;;
75887;SDS011;64562;55.662;37.300;2024-01-15T01:07:13;7.82;;;4.00;;
75887;SDS011;64562;55.662;37.300;2024-01-15T01:09:40;6.93;;;3.67;;
75887;SDS011;64562;55.662;37.300;2024-01-15T01:12:07;7.97;;;3.78;;
75887;SDS011;64562;55.662;37.300;2024-01-15T01:14:35;6.30;;;3.70;;
75887;SDS011;64562;55.662;37.300;2024-01-15T01:17:02;7.78;;;4.35;;
75887;SDS011;64562;55.662;37.300;2024-01-15T01:19:29;5.53;;;3.63;;
75887;SDS011;64562;55.662;37.300;2024-01-15T01:21:55;7.05;;;3.80;;
75887;SDS011;64562;55.662;37.300;2024-01-15T01:24:22;6.55;;;3.97;;
75887;SDS011;64562;55.662;37.300;2024-01-15T01:26:49;6.45;;;3.80;;
75887;SDS011;64562;55.662;37.300;2024-01-15T01:29:16;8.05;;;4.18;;
75887;SDS011;64562;55.662;37.300;2024-01-15T01:31:44;5.38;;;3.42;;
75887;SDS011;64562;55.662;37.300;2024-01-15T01:34:13;6.93;;;3.72;;
75887;SDS011;64562;55.662;37.300;2024-01-15T01:36:40;5.93;;;3.35;;
75887;SDS011;64562;55.662;37.300;2024-01-15T01:39:06;5.85;;;3.30;;
75887;SDS011;64562;55.662;37.300;2024-01-15T01:41:34;5.30;;;3.25;;
75887;SDS011;64562;55.662;37.300;2024-01-15T01:44:01;5.63;;;3.15;;
75887;SDS011;64562;55.662;37.300;2024-01-15T01:46:27;9.23;;;3.33;;
75887;SDS011;64562;55.662;37.300;2024-01-15T01:48:56;5.05;;;3.10;;
75887;SDS011;64562;55.662;37.300;2024-01-15T01:51:26;4.95;;;2.95;;
75887;SDS011;64562;55.662;37.300;2024-01-15T01:53:53;5.68;;;3.03;;
75887;SDS011;64562;55.662;37.300;2024-01-15T01:56:20;6.72;;;3.33;;
75887;SDS011;64562;55.662;37.300;2024-01-15T01:58:47;6.97;;;3.22;;
75887;SDS011;64562;55.662;37.300;2024-01-15T02:01:14;5.60;;;2.92;;
75887;SDS011;64562;55.662;37.300;2024-01-15T02:03:41;6.05;;;3.20;;
75887;SDS011;64562;55.662;37.300;2024-01-15T02:06:10;5.63;;;3.00;;
75887;SDS011;64562;55.662;37.300;2024-01-15T02:08:37;5.22;;;3.03;;
75887;SDS011;64562;55.662;37.300;2024-01-15T02:11:04;6.05;;;3.20;;
75887;SDS011;64562;55.662;37.300;2024-01-15T02:13:31;4.78;;;3.00;;
75887;SDS011;64562;55.662;37.300;2024-01-15T02:15:58;6.53;;;2.85;;
75887;SDS011;64562;55.662;37.300;2024-01-15T02:18:24;5.80;;;3.15;;
75887;SDS011;64562;55.662;37.300;2024-01-15T02:20:51;4.93;;;3.13;;
75887;SDS011;64562;55.662;37.300;2024-01-15T02:23:19;5.47;;;2.92;;
75887;SDS011;64562;55.662;37.300;2024-01-15T02:25:46;5.57;;;3.00;;
75887;SDS011;64562;55.662;37.300;2024-01-15T02:28:13;7.10;;;3.28;;
75887;SDS011;64562;55.662;37.300;2024-01-15T02:30:40;6.28;;;2.85;;
75887;SDS011;64562;55.662;37.300;2024-01-15T02:33:08;4.80;;;2.90;;
75887;SDS011;64562;55.662;37.300;2024-01-15T02:35:35;3.97;;;2.75;;
75887;SDS011;64562;55.662;37.300;2024-01-15T02:38:03;5.15;;;2.90;;
75887;SDS011;64562;55.662;37.300;2024-01-15T02:40:31;5.10;;;2.92;;
75887;SDS011;64562;55.662;37.300;2024-01-15T02:42:58;6.13;;;3.03;;
75887;SDS011;64562;55.662;37.300;2024-01-15T02:45:25;4.97;;;2.70;;
75887;SDS011;64562;55.662;37.300;2024-01-15T02:47:51;4.97;;;2.63;;
75887;SDS011;64562;55.662;37.300;2024-01-15T02:50:18;5.03;;;2.47;;
75887;SDS011;64562;55.662;37.300;2024-01-15T02:52:45;3.92;;;2.63;;
75887;SDS011;64562;55.662;37.300;2024-01-15T02:55:12;4.80;;;2.78;;
75887;SDS011;64562;55.662;37.300;2024-01-15T02:57:40;3.70;;;2.50;;
75887;SDS011;64562;55.662;37.300;2024-01-15T03:00:07;5.70;;;2.80;;
75887;SDS011;64562;55.662;37.300;2024-01-15T03:02:35;4.80;;;2.72;;
75887;SDS011;64562;55.662;37.300;2024-01-15T03:05:02;3.60;;;2.03;;
75887;SDS011;64562;55.662;37.300;2024-01-15T03:07:29;5.65;;;2.80;;
75887;SDS011;64562;55.662;37.300;2024-01-15T03:09:56;4.65;;;2.60;;
75887;SDS011;64562;55.662;37.300;2024-01-15T03:12:23;4.80;;;2.55;;
75887;SDS011;64562;55.662;37.300;2024-01-15T03:14:51;4.85;;;2.78;;
75887;SDS011;64562;55.662;37.300;2024-01-15T03:17:18;3.55;;;2.20;;
75887;SDS011;64562;55.662;37.300;2024-01-15T03:19:45;4.30;;;2.75;;
75887;SDS011;64562;55.662;37.300;2024-01-15T03:22:12;4.75;;;2.70;;
75887;SDS011;64562;55.662;37.300;2024-01-15T03:24:38;4.10;;;2.38;;
75887;SDS011;64562;55.662;37.300;2024-01-15T03:27:05;4.15;;;2.13;;
75887;SDS011;64562;55.662;37.300;2024-01-15T03:29:35;5.10;;;2.60;;
75887;SDS011;64562;55.662;37.300;2024-01-15T03:34:31;5.10;;;2.70;;
75887;SDS011;64562;55.662;37.300;2024-01-15T03:36:58;5.07;;;2.60;;
75887;SDS011;64562;55.662;37.300;2024-01-15T03:39:26;6.03;;;2.90;;
75887;SDS011;64562;55.662;37.300;2024-01-15T03:41:53;4.30;;;2.58;;
75887;SDS011;64562;55.662;37.300;2024-01-15T03:44:20;3.08;;;2.20;;
75887;SDS011;64562;55.662;37.300;2024-01-15T03:46:47;4.28;;;2.70;;
75887;SDS011;64562;55.662;37.300;2024-01-15T03:49:14;5.53;;;2.60;;
75887;SDS011;64562;55.662;37.300;2024-01-15T03:51:42;5.95;;;2.67;;
75887;SDS011;64562;55.662;37.300;2024-01-15T03:54:11;3.83;;;2.33;;
75887;SDS011;64562;55.662;37.300;2024-01-15T03:56:38;4.15;;;2.30;;
75887;SDS011;64562;55.662;37.300;2024-01-15T03:59:05;4.63;;;2.67;;
75887;SDS011;64562;55.662;37.300;2024-01-15T04:01:32;4.68;;;2.40;;
75887;SDS011;64562;55.662;37.300;2024-01-15T04:04:00;4.93;;;2.50;;
75887;SDS011;64562;55.662;37.300;2024-01-15T04:06:26;5.07;;;2.63;;
75887;SDS011;64562;55.662;37.300;2024-01-15T04:08:56;4.57;;;2.35;;
75887;SDS011;64562;55.662;37.300;2024-01-15T04:11:23;3.55;;;2.28;;
75887;SDS011;64562;55.662;37.300;2024-01-15T04:13:51;4.85;;;2.65;;
75887;SDS011;64562;55.662;37.300;2024-01-15T04:16:18;3.55;;;2.47;;
75887;SDS011;64562;55.662;37.300;2024-01-15T04:18:46;3.63;;;2.10;;
75887;SDS011;64562;55.662;37.300;2024-01-15T04:21:13;4.35;;;2.60;;
75887;SDS011;64562;55.662;37.300;2024-01-15T04:23:40;4.15;;;2.40;;
75887;SDS011;64562;55.662;37.300;2024-01-15T04:26:09;4.30;;;2.55;;
75887;SDS011;64562;55.662;37.300;2024-01-15T04:28:36;4.35;;;2.40;;
75887;SDS011;64562;55.662;37.300;2024-01-15T04:31:02;6.82;;;2.42;;
75887;SDS011;64562;55.662;37.300;2024-01-15T04:33:29;5.00;;;2.42;;
75887;SDS011;64562;55.662;37.300;2024-01-15T04:35:56;4.70;;;2.53;;
75887;SDS011;64562;55.662;37.300;2024-01-15T04:38:23;6.63;;;2.35;;
75887;SDS011;64562;55.662;37.300;2024-01-15T04:40:51;4.07;;;2.22;;
75887;SDS011;64562;55.662;37.300;2024-01-15T04:43:19;3.97;;;2.30;;
75887;SDS011;64562;55.662;37.300;2024-01-15T04:45:47;5.05;;;2.67;;
75887;SDS011;64562;55.662;37.300;2024-01-15T04:48:16;4.57;;;2.40;;
75887;SDS011;64562;55.662;37.300;2024-01-15T04:50:43;4.53;;;2.10;;
75887;SDS011;64562;55.662;37.300;2024-01-15T04:53:11;3.55;;;2.13;;
75887;SDS011;64562;55.662;37.300;2024-01-15T04:55:40;5.20;;;2.47;;
75887;SDS011;64562;55.662;37.300;2024-01-15T04:58:09;6.15;;;2.35;;
75887;SDS011;64562;55.662;37.300;2024-01-15T05:00:37;5.35;;;2.22;;
75887;SDS011;64562;55.662;37.300;2024-01-15T05:03:04;4.70;;;2.50;;
75887;SDS011;64562;55.662;37.300;2024-01-15T05:05:31;9.63;;;3.00;;
75887;SDS011;64562;55.662;37.300;2024-01-15T05:07:58;9.10;;;3.10;;
75887;SDS011;64562;55.662;37.300;2024-01-15T05:10:25;9.73;;;3.10;;
75887;SDS011;64562;55.662;37.300;2024-01-15T05:12:52;8.32;;;3.28;;
75887;SDS011;64562;55.662;37.300;2024-01-15T05:15:19;14.95;;;4.00;;
75887;SDS011;64562;55.662;37.300;2024-01-15T05:17:47;16.88;;;3.90;;
75887;SDS011;64562;55.662;37.300;2024-01-15T05:20:14;13.00;;;3.97;;
75887;SDS011;64562;55.662;37.300;2024-01-15T05:22:41;14.80;;;4.22;;
75887;SDS011;64562;55.662;37.300;2024-01-15T05:25:08;9.60;;;3.38;;
75887;SDS011;64562;55.662;37.300;2024-01-15T05:27:37;14.35;;;3.70;;
75887;SDS011;64562;55.662;37.300;2024-01-15T05:30:04;15.32;;;3.95;;
75887;SDS011;64562;55.662;37.300;2024-01-15T05:32:31;12.10;;;3.58;;
75887;SDS011;64562;55.662;37.300;2024-01-15T05:35:01;12.27;;;3.22;;
75887;SDS011;64562;55.662;37.300;2024-01-15T05:37:27;11.77;;;4.18;;
75887;SDS011;64562;55.662;37.300;2024-01-15T05:39:56;10.10;;;3.17;;
75887;SDS011;64562;55.662;37.300;2024-01-15T05:42:23;9.85;;;3.08;;
75887;SDS011;64562;55.662;37.300;2024-01-15T05:44:50;8.32;;;3.22;;
75887;SDS011;64562;55.662;37.300;2024-01-15T05:47:18;14.02;;;3.75;;
75887;SDS011;64562;55.662;37.300;2024-01-15T05:49:45;8.70;;;3.40;;
75887;SDS011;64562;55.662;37.300;2024-01-15T05:52:15;11.68;;;3.50;;
75887;SDS011;64562;55.662;37.300;2024-01-15T05:54:42;11.65;;;3.60;;
75887;SDS011;64562;55.662;37.300;2024-01-15T05:57:09;12.07;;;3.28;;
75887;SDS011;64562;55.662;37.300;2024-01-15T05:59:37;7.03;;;3.05;;
75887;SDS011;64562;55.662;37.300;2024-01-15T06:02:04;10.70;;;3.30;;
75887;SDS011;64562;55.662;37.300;2024-01-15T06:04:31;8.05;;;3.45;;
75887;SDS011;64562;55.662;37.300;2024-01-15T06:06:58;6.57;;;3.00;;
75887;SDS011;64562;55.662;37.300;2024-01-15T06:09:26;9.00;;;2.67;;
75887;SDS011;64562;55.662;37.300;2024-01-15T06:11:53;6.50;;;2.67;;
75887;SDS011;64562;55.662;37.300;2024-01-15T06:14:20;8.00;;;3.22;;
75887;SDS011;64562;55.662;37.300;2024-01-15T06:16:47;6.95;;;3.25;;
75887;SDS011;64562;55.662;37.300;2024-01-15T06:19:14;10.57;;;3.10;;
75887;SDS011;64562;55.662;37.300;2024-01-15T06:21:42;7.03;;;3.47;;
75887;SDS011;64562;55.662;37.300;2024-01-15T06:24:08;7.55;;;2.90;;
75887;SDS011;64562;55.662;37.300;2024-01-15T06:26:38;8.82;;;3.58;;
75887;SDS011;64562;55.662;37.300;2024-01-15T06:29:05;6.60;;;2.72;;
75887;SDS011;64562;55.662;37.300;2024-01-15T06:31:32;6.47;;;2.88;;
75887;SDS011;64562;55.662;37.300;2024-01-15T06:33:59;6.60;;;2.83;;
75887;SDS011;64562;55.662;37.300;2024-01-15T06:36:26;7.20;;;2.95;;
75887;SDS011;64562;55.662;37.300;2024-01-15T06:38:53;7.20;;;2.90;;
75887;SDS011;64562;55.662;37.300;2024-01-15T06:41:21;7.90;;;2.80;;
75887;SDS011;64562;55.662;37.300;2024-01-15T06:43:50;7.30;;;3.03;;
75887;SDS011;64562;55.662;37.300;2024-01-15T06:46:19;6.25;;;3.10;;
75887;SDS011;64562;55.662;37.300;2024-01-15T06:48:46;6.95;;;2.80;;
75887;SDS011;64562;55.662;37.300;2024-01-15T06:51:13;6.05;;;2.47;;
75887;SDS011;64562;55.662;37.300;2024-01-15T06:53:40;10.23;;;2.90;;
75887;SDS011;64562;55.662;37.300;2024-01-15T06:56:07;7.70;;;3.03;;
75887;SDS011;64562;55.662;37.300;2024-01-15T06:58:34;4.68;;;2.60;;
75887;SDS011;64562;55.662;37.300;2024-01-15T07:01:03;5.72;;;2.60;;
75887;SDS011;64562;55.662;37.300;2024-01-15T07:03:31;6.47;;;2.70;;
75887;SDS011;64562;55.662;37.300;2024-01-15T07:05:58;7.93;;;2.95;;
75887;SDS011;64562;55.662;37.300;2024-01-15T07:08:25;5.78;;;3.00;;
75887;SDS011;64562;55.662;37.300;2024-01-15T07:10:52;6.28;;;3.03;;
75887;SDS011;64562;55.662;37.300;2024-01-15T07:13:19;6.93;;;2.90;;
75887;SDS011;64562;55.662;37.300;2024-01-15T07:15:46;7.75;;;3.30;;
75887;SDS011;64562;55.662;37.300;2024-01-15T07:18:15;4.50;;;2.65;;
75887;SDS011;64562;55.662;37.300;2024-01-15T07:20:42;5.38;;;2.50;;
75887;SDS011;64562;55.662;37.300;2024-01-15T07:23:08;5.10;;;2.33;;
75887;SDS011;64562;55.662;37.300;2024-01-15T07:28:05;5.25;;;2.70;;
75887;SDS011;64562;55.662;37.300;2024-01-15T07:30:32;6.85;;;3.42;;
75887;SDS011;64562;55.662;37.300;2024-01-15T07:32:58;4.10;;;2.38;;
75887;SDS011;64562;55.662;37.300;2024-01-15T07:35:27;4.68;;;2.90;;
75887;SDS011;64562;55.662;37.300;2024-01-15T07:37:53;7.35;;;2.63;;
75887;SDS011;64562;55.662;37.300;2024-01-15T07:40:20;5.15;;;2.63;;
75887;SDS011;64562;55.662;37.300;2024-01-15T07:42:47;5.93;;;2.60;;
75887;SDS011;64562;55.662;37.300;2024-01-15T07:45:14;6.25;;;2.53;;
75887;SDS011;64562;55.662;37.300;2024-01-15T07:47:41;4.75;;;2.28;;
75887;SDS011;64562;55.662;37.300;2024-01-15T07:50:08;4.53;;;2.40;;
75887;SDS011;64562;55.662;37.300;2024-01-15T07:52:36;5.65;;;2.78;;
75887;SDS011;64562;55.662;37.300;2024-01-15T07:55:03;5.45;;;2.78;;
75887;SDS011;64562;55.662;37.300;2024-01-15T07:57:30;5.85;;;2.60;;
75887;SDS011;64562;55.662;37.300;2024-01-15T07:59:57;6.07;;;2.90;;
75887;SDS011;64562;55.662;37.300;2024-01-15T08:02:24;5.00;;;2.65;;
75887;SDS011;64562;55.662;37.300;2024-01-15T08:04:51;3.67;;;2.50;;
75887;SDS011;64562;55.662;37.300;2024-01-15T08:07:18;6.20;;;2.65;;
75887;SDS011;64562;55.662;37.300;2024-01-15T08:09:46;4.03;;;2.30;;
75887;SDS011;64562;55.662;37.300;2024-01-15T08:12:15;5.28;;;2.80;;
75887;SDS011;64562;55.662;37.300;2024-01-15T08:14:42;5.03;;;2.67;;
75887;SDS011;64562;55.662;37.300;2024-01-15T08:17:09;4.40;;;2.40;;
75887;SDS011;64562;55.662;37.300;2024-01-15T08:19:36;3.72;;;2.38;;
75887;SDS011;64562;55.662;37.300;2024-01-15T08:22:06;3.95;;;2.55;;
75887;SDS011;64562;55.662;37.300;2024-01-15T08:24:34;4.05;;;2.40;;
75887;SDS011;64562;55.662;37.300;2024-01-15T08:27:03;3.85;;;2.38;;
75887;SDS011;64562;55.662;37.300;2024-01-15T08:29:30;4.15;;;2.28;;
75887;SDS011;64562;55.662;37.300;2024-01-15T08:32:00;5.85;;;2.78;;
75887;SDS011;64562;55.662;37.300;2024-01-15T08:34:27;5.97;;;2.75;;
75887;SDS011;64562;55.662;37.300;2024-01-15T08:36:54;5.20;;;2.28;;
75887;SDS011;64562;55.662;37.300;2024-01-15T08:39:21;4.53;;;2.20;;
75887;SDS011;64562;55.662;37.300;2024-01-15T08:41:48;7.10;;;2.80;;
75887;SDS011;64562;55.662;37.300;2024-01-15T08:44:16;5.72;;;2.63;;
75887;SDS011;64562;55.662;37.300;2024-01-15T08:46:44;4.00;;;2.33;;
75887;SDS011;64562;55.662;37.300;2024-01-15T08:49:11;5.93;;;2.65;;
75887;SDS011;64562;55.662;37.300;2024-01-15T08:51:38;6.20;;;2.22;;
75887;SDS011;64562;55.662;37.300;2024-01-15T08:54:05;7.72;;;2.80;;
75887;SDS011;64562;55.662;37.300;2024-01-15T08:56:34;9.95;;;2.60;;
75887;SDS011;64562;55.662;37.300;2024-01-15T08:59:01;8.40;;;2.60;;
75887;SDS011;64562;55.662;37.300;2024-01-15T09:01:29;6.43;;;2.60;;
75887;SDS011;64562;55.662;37.300;2024-01-15T09:03:57;6.18;;;2.33;;
75887;SDS011;64562;55.662;37.300;2024-01-15T09:06:24;5.35;;;2.53;;
75887;SDS011;64562;55.662;37.300;2024-01-15T09:08:51;4.30;;;2.20;;
75887;SDS011;64562;55.662;37.300;2024-01-15T09:11:19;5.72;;;2.33;;
75887;SDS011;64562;55.662;37.300;2024-01-15T09:13:46;4.70;;;2.28;;
75887;SDS011;64562;55.662;37.300;2024-01-15T09:16:14;3.55;;;2.33;;
75887;SDS011;64562;55.662;37.300;2024-01-15T09:18:42;4.53;;;2.38;;
75887;SDS011;64562;55.662;37.300;2024-01-15T09:21:12;4.53;;;2.40;;
75887;SDS011;64562;55.662;37.300;2024-01-15T09:23:39;4.00;;;2.30;;
75887;SDS011;64562;55.662;37.300;2024-01-15T09:26:07;4.07;;;2.30;;
75887;SDS011;64562;55.662;37.300;2024-01-15T09:28:35;5.78;;;2.53;;
75887;SDS011;64562;55.662;37.300;2024-01-15T09:31:02;4.70;;;2.45;;
75887;SDS011;64562;55.662;37.300;2024-01-15T09:33:29;3.83;;;2.42;;
75887;SDS011;64562;55.662;37.300;2024-01-15T09:36:00;4.22;;;2.30;;
75887;SDS011;64562;55.662;37.300;2024-01-15T09:38:29;3.20;;;1.92;;
75887;SDS011;64562;55.662;37.300;2024-01-15T09:40:57;4.65;;;2.33;;
75887;SDS011;64562;55.662;37.300;2024-01-15T09:43:24;4.25;;;2.28;;
75887;SDS011;64562;55.662;37.300;2024-01-15T09:45:50;4.32;;;2.63;;
75887;SDS011;64562;55.662;37.300;2024-01-15T09:48:19;7.55;;;2.53;;
75887;SDS011;64562;55.662;37.300;2024-01-15T09:50:45;4.63;;;2.40;;
75887;SDS011;64562;55.662;37.300;2024-01-15T09:53:14;5.32;;;2.33;;
75887;SDS011;64562;55.662;37.300;2024-01-15T09:55:43;4.68;;;2.55;;
75887;SDS011;64562;55.662;37.300;2024-01-15T09:58:12;3.17;;;1.85;;
75887;SDS011;64562;55.662;37.300;2024-01-15T10:00:39;4.72;;;2.30;;
75887;SDS011;64562;55.662;37.300;2024-01-15T10:03:07;4.07;;;2.28;;
75887;SDS011;64562;55.662;37.300;2024-01-15T10:05:35;3.50;;;2.00;;
75887;SDS011;64562;55.662;37.300;2024-01-15T10:08:02;6.00;;;2.35;;
75887;SDS011;64562;55.662;37.300;2024-01-15T10:10:31;3.97;;;2.10;;
75887;SDS011;64562;55.662;37.300;2024-01-15T10:12:58;5.03;;;2.72;;
75887;SDS011;64562;55.662;37.300;2024-01-15T10:15:25;5.07;;;2.30;;
75887;SDS011;64562;55.662;37.300;2024-01-15T10:17:52;4.75;;;2.83;;
75887;SDS011;64562;55.662;37.300;2024-01-15T10:20:19;4.95;;;2.50;;
75887;SDS011;64562;55.662;37.300;2024-01-15T10:22:47;4.35;;;2.30;;
75887;SDS011;64562;55.662;37.300;2024-01-15T10:25:14;3.88;;;2.33;;
75887;SDS011;64562;55.662;37.300;2024-01-15T10:27:43;2.90;;;1.73;;
75887;SDS011;64562;55.662;37.300;2024-01-15T10:30:11;4.60;;;2.40;;
75887;SDS011;64562;55.662;37.300;2024-01-15T10:32:39;3.45;;;2.28;;
75887;SDS011;64562;55.662;37.300;2024-01-15T10:35:07;3.38;;;1.75;;
75887;SDS011;64562;55.662;37.300;2024-01-15T10:37:34;4.15;;;2.35;;
75887;SDS011;64562;55.662;37.300;2024-01-15T10:40:02;4.22;;;2.35;;
75887;SDS011;64562;55.662;37.300;2024-01-15T10:42:31;3.10;;;2.17;;
75887;SDS011;64562;55.662;37.300;2024-01-15T10:45:00;5.65;;;2.45;;
75887;SDS011;64562;55.662;37.300;2024-01-15T10:47:26;3.35;;;2.08;;
75887;SDS011;64562;55.662;37.300;2024-01-15T10:49:53;3.47;;;1.95;;
75887;SDS011;64562;55.662;37.300;2024-01-15T10:52:21;3.72;;;2.40;;
75887;SDS011;64562;55.662;37.300;2024-01-15T10:54:48;5.00;;;2.17;;
75887;SDS011;64562;55.662;37.300;2024-01-15T10:57:16;4.55;;;2.20;;
75887;SDS011;64562;55.662;37.300;2024-01-15T10:59:45;3.25;;;1.95;;
75887;SDS011;64562;55.662;37.300;2024-01-15T11:02:15;4.45;;;2.22;;
75887;SDS011;64562;55.662;37.300;2024-01-15T11:04:42;5.25;;;2.40;;
75887;SDS011;64562;55.662;37.300;2024-01-15T11:07:08;3.55;;;2.47;;
75887;SDS011;64562;55.662;37.300;2024-01-15T11:09:37;5.15;;;2.67;;
75887;SDS011;64562;55.662;37.300;2024-01-15T11:12:07;5.97;;;2.70;;
75887;SDS011;64562;55.662;37.300;2024-01-15T11:14:34;2.88;;;2.05;;
75887;SDS011;64562;55.662;37.300;2024-01-15T11:17:01;4.82;;;2.58;;
75887;SDS011;64562;55.662;37.300;2024-01-15T11:19:37;3.38;;;2.33;;
75887;SDS011;64562;55.662;37.300;2024-01-15T11:22:06;4.18;;;2.50;;
75887;SDS011;64562;55.662;37.300;2024-01-15T11:24:34;4.80;;;1.90;;
75887;SDS011;64562;55.662;37.300;2024-01-15T11:27:03;4.22;;;2.38;;
75887;SDS011;64562;55.662;37.300;2024-01-15T11:29:31;3.60;;;2.17;;
75887;SDS011;64562;55.662;37.300;2024-01-15T11:32:01;3.78;;;1.95;;
75887;SDS011;64562;55.662;37.300;2024-01-15T11:37:17;4.60;;;2.08;;
75887;SDS011;64562;55.662;37.300;2024-01-15T11:39:45;3.47;;;2.10;;
75887;SDS011;64562;55.662;37.300;2024-01-15T11:42:13;4.00;;;2.17;;
75887;SDS011;64562;55.662;37.300;2024-01-15T11:44:40;4.05;;;2.10;;
75887;SDS011;64562;55.662;37.300;2024-01-15T11:47:08;4.65;;;2.35;;
75887;SDS011;64562;55.662;37.300;2024-01-15T11:52:24;4.63;;;2.40;;
75887;SDS011;64562;55.662;37.300;2024-01-15T11:54:55;4.13;;;2.30;;
75887;SDS011;64562;55.662;37.300;2024-01-15T11:57:25;3.72;;;2.13;;
75887;SDS011;64562;55.662;37.300;2024-01-15T11:59:54;4.28;;;2.58;;
75887;SDS011;64562;55.662;37.300;2024-01-15T12:02:21;4.53;;;2.10;;
75887;SDS011;64562;55.662;37.300;2024-01-15T12:04:48;3.50;;;2.10;;
75887;SDS011;64562;55.662;37.300;2024-01-15T12:07:15;3.40;;;2.25;;
75887;SDS011;64562;55.662;37.300;2024-01-15T12:09:44;4.18;;;2.40;;
75887;SDS011;64562;55.662;37.300;2024-01-15T12:12:13;4.07;;;2.35;;
75887;SDS011;64562;55.662;37.300;2024-01-15T12:14:42;4.47;;;2.50;;
75887;SDS011;64562;55.662;37.300;2024-01-15T12:17:09;3.85;;;2.20;;
75887;SDS011;64562;55.662;37.300;2024-01-15T12:19:37;3.83;;;2.30;;
75887;SDS011;64562;55.662;37.300;2024-01-15T12:22:05;4.57;;;2.35;;
75887;SDS011;64562;55.662;37.300;2024-01-15T12:24:32;4.30;;;2.30;;
75887;SDS011;64562;55.662;37.300;2024-01-15T12:27:00;4.00;;;2.38;;
75887;SDS011;64562;55.662;37.300;2024-01-15T12:29:28;4.03;;;2.25;;
75887;SDS011;64562;55.662;37.300;2024-01-15T12:31:57;4.25;;;1.90;;
75887;SDS011;64562;55.662;37.300;2024-01-15T12:34:24;3.42;;;2.20;;
75887;SDS011;64562;55.662;37.300;2024-01-15T12:36:58;3.03;;;2.13;;
75887;SDS011;64562;55.662;37.300;2024-01-15T12:39:26;3.20;;;2.28;;
75887;SDS011;64562;55.662;37.300;2024-01-15T12:41:54;5.10;;;2.35;;
75887;SDS011;64562;55.662;37.300;2024-01-15T12:44:23;4.50;;;2.65;;
75887;SDS011;64562;55.662;37.300;2024-01-15T12:46:50;4.97;;;2.42;;
75887;SDS011;64562;55.662;37.300;2024-01-15T12:49:17;5.85;;;2.40;;
75887;SDS011;64562;55.662;37.300;2024-01-15T12:51:52;4.25;;;2.60;;
75887;SDS011;64562;55.662;37.300;2024-01-15T12:54:19;5.47;;;2.45;;
75887;SDS011;64562;55.662;37.300;2024-01-15T12:56:46;5.70;;;2.80;;
75887;SDS011;64562;55.662;37.300;2024-01-15T12:59:13;4.97;;;2.58;;
75887;SDS011;64562;55.662;37.300;2024-01-15T13:01:42;3.92;;;2.15;;
75887;SDS011;64562;55.662;37.300;2024-01-15T13:04:09;5.22;;;2.58;;
75887;SDS011;64562;55.662;37.300;2024-01-15T13:06:37;6.38;;;2.92;;
75887;SDS011;64562;55.662;37.300;2024-01-15T13:09:04;9.25;;;2.45;;
75887;SDS011;64562;55.662;37.300;2024-01-15T13:11:31;3.95;;;2.20;;
75887;SDS011;64562;55.662;37.300;2024-01-15T13:13:59;5.20;;;2.25;;
75887;SDS011;64562;55.662;37.300;2024-01-15T13:16:26;5.30;;;2.70;;
75887;SDS011;64562;55.662;37.300;2024-01-15T13:18:57;5.25;;;2.58;;
75887;SDS011;64562;55.662;37.300;2024-01-15T13:21:24;3.47;;;2.10;;
75887;SDS011;64562;55.662;37.300;2024-01-15T13:23:51;5.03;;;2.50;;
75887;SDS011;64562;55.662;37.300;2024-01-15T13:26:19;5.63;;;2.22;;
75887;SDS011;64562;55.662;37.300;2024-01-15T13:28:46;5.20;;;2.28;;
75887;SDS011;64562;55.662;37.300;2024-01-15T13:31:13;5.32;;;2.70;;
75887;SDS011;64562;55.662;37.300;2024-01-15T13:33:40;5.32;;;2.30;;
75887;SDS011;64562;55.662;37.300;2024-01-15T13:36:12;4.10;;;2.10;;
75887;SDS011;64562;55.662;37.300;2024-01-15T13:38:39;3.08;;;2.05;;
75887;SDS011;64562;55.662;37.300;2024-01-15T13:41:06;4.55;;;2.15;;
75887;SDS011;64562;55.662;37.300;2024-01-15T13:43:34;5.18;;;2.45;;
75887;SDS011;64562;55.662;37.300;2024-01-15T13:46:05;4.55;;;2.80;;
75887;SDS011;64562;55.662;37.300;2024-01-15T13:48:32;3.70;;;2.20;;
75887;SDS011;64562;55.662;37.300;2024-01-15T13:51:00;5.25;;;2.65;;
75887;SDS011;64562;55.662;37.300;2024-01-15T13:53:27;4.15;;;2.42;;
75887;SDS011;64562;55.662;37.300;2024-01-15T13:55:55;5.65;;;2.50;;
75887;SDS011;64562;55.662;37.300;2024-01-15T13:58:22;3.53;;;2.10;;
75887;SDS011;64562;55.662;37.300;2024-01-15T14:00:50;4.53;;;1.88;;
75887;SDS011;64562;55.662;37.300;2024-01-15T14:03:17;5.47;;;2.80;;
75887;SDS011;64562;55.662;37.300;2024-01-15T14:05:45;5.60;;;3.15;;
75887;SDS011;64562;55.662;37.300;2024-01-15T14:08:12;3.85;;;2.70;;
75887;SDS011;64562;55.662;37.300;2024-01-15T14:10:41;4.95;;;2.55;;
75887;SDS011;64562;55.662;37.300;2024-01-15T14:13:08;5.45;;;2.63;;
75887;SDS011;64562;55.662;37.300;2024-01-15T14:15:36;4.00;;;2.20;;
75887;SDS011;64562;55.662;37.300;2024-01-15T14:18:05;4.95;;;2.20;;
75887;SDS011;64562;55.662;37.300;2024-01-15T14:22:59;5.20;;;2.45;;
75887;SDS011;64562;55.662;37.300;2024-01-15T14:25:27;5.10;;;2.30;;
75887;SDS011;64562;55.662;37.300;2024-01-15T14:27:56;5.32;;;2.65;;
75887;SDS011;64562;55.662;37.300;2024-01-15T14:30:24;3.47;;;2.17;;
75887;SDS011;64562;55.662;37.300;2024-01-15T14:32:52;3.97;;;2.33;;
75887;SDS011;64562;55.662;37.300;2024-01-15T14:35:18;3.78;;;2.47;;
75887;SDS011;64562;55.662;37.300;2024-01-15T14:37:45;5.88;;;2.80;;
75887;SDS011;64562;55.662;37.300;2024-01-15T14:40:13;4.30;;;2.15;;
75887;SDS011;64562;55.662;37.300;2024-01-15T14:42:41;5.30;;;2.28;;
75887;SDS011;64562;55.662;37.300;2024-01-15T14:45:09;4.47;;;2.40;;
75887;SDS011;64562;55.662;37.300;2024-01-15T14:50:05;3.83;;;2.20;;